createdAt,value
2022-12-09T00:09:35.019Z,0.6
2022-12-09T00:19:36.207Z,0.8
2022-12-09T00:29:37.268Z,0.9
2022-12-09T00:49:40.438Z,1.1
2022-12-09T00:59:42.352Z,1.2
2022-12-09T01:09:43.891Z,1.1
2022-12-09T01:29:46.211Z,1.2
2022-12-09T01:49:49.479Z,1.3
2022-12-09T01:59:51.159Z,1.3
2022-12-09T02:09:53.396Z,1.3
2022-12-09T02:19:54.422Z,1.4
2022-12-09T02:39:58.095Z,1.4
2022-12-09T02:50:00.035Z,1.4
2022-12-09T03:00:02.036Z,1.4
2022-12-09T03:10:03.345Z,1.5
2022-12-09T03:20:05.489Z,1.4
2022-12-09T03:30:07.346Z,1.5
2022-12-09T03:40:13.588Z,1.5
2022-12-09T03:50:09.676Z,1.6
2022-12-09T04:00:10.994Z,1.6
2022-12-09T04:10:12.313Z,1.6
2022-12-09T04:20:13.558Z,1.6
2022-12-09T04:40:19.804Z,1.7
2022-12-09T04:50:17.116Z,1.8
2022-12-09T05:00:18.098Z,1.7
2022-12-09T05:10:19.610Z,1.7
2022-12-09T05:20:21.484Z,1.7
2022-12-09T05:30:22.963Z,1.6
2022-12-09T05:40:24.899Z,1.6
2022-12-09T05:50:26.463Z,1.6
2022-12-09T06:00:27.512Z,1.5
2022-12-09T06:10:29.556Z,1.5
2022-12-09T06:20:30.786Z,1.4
2022-12-09T06:30:31.938Z,1.3
2022-12-09T06:40:33.524Z,1.2
2022-12-09T06:50:35.570Z,1.3
2022-12-09T07:30:40.847Z,1.1
2022-12-09T07:40:42.604Z,1
2022-12-09T07:50:44.271Z,1
2022-12-09T08:00:45.887Z,1
2022-12-09T08:10:47.541Z,1.1
2022-12-09T08:20:48.718Z,1.1
2022-12-09T08:30:50.228Z,1.2
2022-12-09T08:50:53.533Z,1.3
2022-12-09T09:00:55.128Z,1.3
2022-12-09T09:10:56.826Z,1.4
2022-12-09T09:20:58.239Z,1.4
2022-12-09T09:30:59.935Z,1.5
2022-12-09T09:41:01.514Z,1.6
2022-12-09T09:51:02.964Z,1.6
2022-12-09T10:01:05.246Z,1.6
2022-12-09T10:11:06.986Z,1.7
2022-12-09T10:21:08.487Z,1.9
2022-12-09T10:31:09.658Z,2
2022-12-09T10:41:11.796Z,2
2022-12-09T10:51:13.565Z,2.2
2022-12-09T11:01:15.326Z,2.2
2022-12-09T11:11:17.151Z,2
2022-12-09T11:21:18.957Z,2
2022-12-09T11:31:33.244Z,1.9
2022-12-09T11:41:21.762Z,1.9
2022-12-09T11:51:22.977Z,1.8
2022-12-09T12:01:24.650Z,1.9
2022-12-09T12:21:27.622Z,2.2
2022-12-09T12:31:29.004Z,2.2
2022-12-09T12:51:31.503Z,2.2
2022-12-09T13:01:33.440Z,2.1
2022-12-09T13:11:35.406Z,2.1
2022-12-09T13:21:36.543Z,2.1
2022-12-09T13:31:38.427Z,2.1
2022-12-09T13:41:39.865Z,1.9
2022-12-09T13:51:41.258Z,1.8
2022-12-09T14:01:42.951Z,1.8
2022-12-09T14:11:44.435Z,1.7
2022-12-09T14:21:46.206Z,1.6
2022-12-09T14:31:47.868Z,1.5
2022-12-09T14:41:49.212Z,1.3
2022-12-09T14:51:50.452Z,1.2
2022-12-09T15:01:51.852Z,1.1
2022-12-09T15:11:53.289Z,0.6
2022-12-09T15:21:54.440Z,0.2
2022-12-09T15:31:55.890Z,0
2022-12-09T15:51:58.155Z,-0.3
2022-12-09T16:12:01.085Z,-0.5
2022-12-09T16:22:02.229Z,-0.6
2022-12-09T16:32:03.394Z,-0.5
2022-12-09T17:52:16.987Z,-0.3
2022-12-09T18:32:23.415Z,-0.5
2022-12-09T18:52:26.655Z,-0.5
2022-12-09T19:12:46.263Z,-0.5
2022-12-09T19:22:30.966Z,-0.5
2022-12-09T19:42:42.770Z,-0.4
2022-12-09T19:52:44.300Z,-0.4
2022-12-09T20:02:45.742Z,-0.5
2022-12-09T20:12:46.934Z,-0.5
2022-12-09T20:22:48.925Z,-0.6
2022-12-09T20:32:49.994Z,-0.7
2022-12-09T20:42:51.334Z,-0.8
2022-12-09T21:02:54.904Z,-0.9
2022-12-09T21:53:03.438Z,-0.7
2022-12-09T22:03:05.476Z,-0.6
2022-12-09T22:33:10.233Z,-0.7
2022-12-09T22:53:13.315Z,-0.6
2022-12-09T23:03:14.690Z,-0.7
2022-12-09T23:23:17.499Z,-0.7
2022-12-09T23:43:20.175Z,-0.8
2022-12-09T23:53:21.751Z,-0.9
